createdAt,value
2023-05-19T00:01:56.213Z,13.20
2023-05-19T00:04:28.700Z,13.20
2023-05-19T00:07:02.971Z,13.10
2023-05-19T00:09:35.452Z,13.10
2023-05-19T00:12:08.362Z,13.10
2023-05-19T00:14:40.754Z,13.10
2023-05-19T00:17:13.225Z,13.00
2023-05-19T00:19:45.349Z,13.00
2023-05-19T00:22:17.407Z,13.00
2023-05-19T00:24:49.368Z,12.90
2023-05-19T00:27:21.326Z,12.90
2023-05-19T00:29:53.290Z,12.90
2023-05-19T00:32:25.316Z,12.80
2023-05-19T00:34:57.619Z,12.80
2023-05-19T00:37:29.646Z,12.80
2023-05-19T00:40:01.619Z,12.80
2023-05-19T00:42:33.964Z,12.70
2023-05-19T00:45:07.007Z,12.70
2023-05-19T00:47:39.952Z,12.70
2023-05-19T00:50:12.004Z,12.60
2023-05-19T00:52:44.186Z,12.60
2023-05-19T00:55:16.522Z,12.60
2023-05-19T00:57:50.404Z,12.60
2023-05-19T01:00:22.818Z,12.50
2023-05-19T01:02:56.181Z,12.50
2023-05-19T01:05:28.229Z,12.50
2023-05-19T01:08:00.371Z,12.50
2023-05-19T01:10:32.503Z,12.50
2023-05-19T01:13:06.616Z,12.40
2023-05-19T01:16:02.279Z,12.40
2023-05-19T01:19:10.895Z,12.40
2023-05-19T01:22:01.299Z,12.40
2023-05-19T01:25:11.330Z,12.30
2023-05-19T01:28:10.531Z,12.30
2023-05-19T01:30:45.043Z,12.30
2023-05-19T01:33:18.960Z,12.30
2023-05-19T01:35:53.465Z,12.20
2023-05-19T01:38:28.568Z,12.20
2023-05-19T01:41:04.092Z,12.20
2023-05-19T01:43:36.465Z,12.10
2023-05-19T01:46:09.193Z,12.10
2023-05-19T01:48:44.774Z,12.10
2023-05-19T01:51:17.112Z,12.10
2023-05-19T01:53:49.181Z,12.10
2023-05-19T01:56:53.765Z,12.00
2023-05-19T02:00:07.890Z,12.00
2023-05-19T02:03:18.045Z,12.00
2023-05-19T02:05:58.908Z,12.00
2023-05-19T02:08:42.840Z,11.90
2023-05-19T02:11:44.654Z,11.90
2023-05-19T02:14:29.933Z,11.90
2023-05-19T02:17:05.338Z,11.80
2023-05-19T02:19:40.162Z,11.90
2023-05-19T02:22:12.226Z,11.80
2023-05-19T02:24:46.599Z,11.80
2023-05-19T02:27:19.064Z,11.80
2023-05-19T02:29:51.011Z,11.80
2023-05-19T02:32:23.117Z,11.80
2023-05-19T02:34:56.544Z,11.80
2023-05-19T02:37:29.332Z,11.80
2023-05-19T02:40:01.324Z,11.70
2023-05-19T02:42:33.323Z,11.70
2023-05-19T02:45:06.053Z,11.70
2023-05-19T02:47:38.439Z,11.70
2023-05-19T02:50:10.964Z,11.70
2023-05-19T02:52:42.915Z,11.70
2023-05-19T02:55:17.184Z,11.70
2023-05-19T02:57:49.292Z,11.70
2023-05-19T03:00:21.457Z,11.60
2023-05-19T03:02:54.280Z,11.60
2023-05-19T03:05:26.296Z,11.60
2023-05-19T03:07:58.316Z,11.60
2023-05-19T03:10:31.135Z,11.60
2023-05-19T03:13:03.262Z,11.50
2023-05-19T03:15:36.695Z,11.50
2023-05-19T03:18:08.805Z,11.50
2023-05-19T03:20:42.438Z,11.50
2023-05-19T03:23:14.433Z,11.50
2023-05-19T03:25:46.543Z,11.50
2023-05-19T03:28:18.582Z,11.40
2023-05-19T03:30:50.946Z,11.40
2023-05-19T03:33:23.996Z,11.40
2023-05-19T03:35:57.781Z,11.30
2023-05-19T03:38:29.763Z,11.30
2023-05-19T03:41:01.740Z,11.30
2023-05-19T03:43:33.732Z,11.30
2023-05-19T03:46:06.095Z,11.30
2023-05-19T03:48:38.087Z,11.30
2023-05-19T03:51:10.029Z,11.30
2023-05-19T03:53:41.976Z,11.30
2023-05-19T03:56:14.106Z,11.20
2023-05-19T03:58:47.113Z,11.20
2023-05-19T04:01:19.258Z,11.20
2023-05-19T04:03:51.214Z,11.20
2023-05-19T04:06:23.494Z,11.10
2023-05-19T04:08:55.805Z,11.10
2023-05-19T04:11:27.764Z,11.10
2023-05-19T04:13:59.846Z,11.10
2023-05-19T04:16:32.263Z,11.10
2023-05-19T04:19:04.373Z,11.10
2023-05-19T04:21:36.509Z,11.10
2023-05-19T04:24:08.725Z,11.10
2023-05-19T04:26:45.776Z,11.10
2023-05-19T04:29:18.203Z,11.10
2023-05-19T04:31:50.499Z,11.10
2023-05-19T04:34:23.010Z,11.10
2023-05-19T04:36:55.565Z,11.10
2023-05-19T04:39:27.506Z,11.10
2023-05-19T04:42:00.032Z,11.10
2023-05-19T04:44:32.046Z,11.10
2023-05-19T04:47:06.446Z,11.10
2023-05-19T04:49:42.300Z,11.10
2023-05-19T04:52:14.262Z,11.10
2023-05-19T04:54:46.236Z,11.10
2023-05-19T04:57:18.244Z,11.20
2023-05-19T04:59:50.232Z,11.20
2023-05-19T05:02:22.365Z,11.20
2023-05-19T05:04:54.656Z,11.20
2023-05-19T05:07:26.749Z,11.20
2023-05-19T05:09:58.750Z,11.20
2023-05-19T05:12:32.006Z,11.20
2023-05-19T05:15:06.944Z,11.30
2023-05-19T05:17:39.328Z,11.30
2023-05-19T05:20:12.764Z,11.40
2023-05-19T05:22:45.206Z,11.40
2023-05-19T05:25:18.404Z,11.50
2023-05-19T05:27:50.797Z,11.50
2023-05-19T05:30:22.721Z,11.60
2023-05-19T05:32:54.749Z,11.70
2023-05-19T05:35:26.777Z,11.80
2023-05-19T05:37:58.821Z,11.90
2023-05-19T05:40:30.935Z,12.00
2023-05-19T05:43:02.905Z,12.10
2023-05-19T05:45:35.020Z,12.20
2023-05-19T05:48:07.891Z,12.30
2023-05-19T05:50:41.262Z,12.40
2023-05-19T05:53:19.866Z,12.50
2023-05-19T05:55:53.605Z,12.60
2023-05-19T05:58:25.928Z,12.70
2023-05-19T06:00:57.920Z,12.80
2023-05-19T06:03:32.026Z,12.90
2023-05-19T06:06:04.671Z,13.00
2023-05-19T06:08:36.752Z,13.10
2023-05-19T06:11:09.407Z,13.20
2023-05-19T06:13:41.617Z,13.20
2023-05-19T06:16:13.637Z,13.30
2023-05-19T06:18:45.678Z,13.30
2023-05-19T06:21:17.741Z,13.20
2023-05-19T06:23:49.733Z,13.30
2023-05-19T06:26:22.215Z,13.30
2023-05-19T06:28:54.128Z,13.40
2023-05-19T06:31:26.646Z,13.50
2023-05-19T06:33:58.922Z,13.60
2023-05-19T06:36:31.396Z,13.70
2023-05-19T06:39:03.694Z,13.90
2023-05-19T06:41:35.644Z,14.10
2023-05-19T06:44:09.146Z,14.30
2023-05-19T06:46:41.176Z,14.50
2023-05-19T06:49:13.317Z,14.60
2023-05-19T06:51:45.409Z,14.70
2023-05-19T06:54:17.396Z,14.80
2023-05-19T06:56:49.419Z,14.90
2023-05-19T06:59:22.742Z,14.90
2023-05-19T07:01:54.746Z,14.90
2023-05-19T07:04:27.317Z,15.00
2023-05-19T07:06:59.442Z,15.10
2023-05-19T07:09:31.521Z,15.20
2023-05-19T07:12:03.676Z,15.20
2023-05-19T07:14:36.539Z,15.40
2023-05-19T07:17:08.652Z,15.50
2023-05-19T07:19:40.795Z,15.70
2023-05-19T07:22:12.772Z,15.90
2023-05-19T07:24:44.758Z,16.00
2023-05-19T07:27:16.688Z,16.10
2023-05-19T07:29:48.588Z,16.30
2023-05-19T07:32:20.645Z,16.40
2023-05-19T07:34:52.944Z,16.50
2023-05-19T07:37:25.037Z,16.60
2023-05-19T07:39:57.067Z,16.80
2023-05-19T07:42:29.063Z,17.00
2023-05-19T07:45:01.318Z,17.10
2023-05-19T07:47:33.444Z,17.20
2023-05-19T07:50:06.241Z,17.20
2023-05-19T07:52:38.238Z,17.30
2023-05-19T07:55:11.636Z,17.40
2023-05-19T07:57:43.626Z,17.40
2023-05-19T08:00:16.981Z,17.50
2023-05-19T08:02:49.073Z,17.50
2023-05-19T08:05:21.208Z,17.60
2023-05-19T08:07:53.208Z,17.60
2023-05-19T08:10:25.249Z,17.60
2023-05-19T08:12:57.171Z,17.60
2023-05-19T08:15:29.191Z,17.60
2023-05-19T08:18:01.753Z,17.60
2023-05-19T08:20:34.302Z,17.60
2023-05-19T08:23:06.554Z,17.60
2023-05-19T08:25:38.500Z,17.80
2023-05-19T08:28:10.791Z,17.90
2023-05-19T08:30:42.932Z,18.10
2023-05-19T08:33:15.014Z,18.30
2023-05-19T08:35:48.052Z,18.40
2023-05-19T08:38:20.120Z,18.60
2023-05-19T08:40:52.534Z,18.70
2023-05-19T08:43:24.578Z,18.70
2023-05-19T08:45:59.461Z,18.80
2023-05-19T08:48:32.632Z,19.00
2023-05-19T08:51:22.364Z,19.10
2023-05-19T08:54:04.500Z,19.30
2023-05-19T08:56:38.070Z,19.50
2023-05-19T08:59:11.371Z,19.80
2023-05-19T09:01:49.001Z,20.00
2023-05-19T09:04:21.207Z,20.20
2023-05-19T09:06:53.391Z,20.30
2023-05-19T09:09:25.683Z,20.40
2023-05-19T09:11:58.353Z,20.50
2023-05-19T09:14:30.874Z,20.60
2023-05-19T09:17:03.404Z,20.50
2023-05-19T09:19:35.699Z,20.50
2023-05-19T09:22:07.749Z,20.50
2023-05-19T09:24:40.716Z,20.40
2023-05-19T09:27:21.119Z,20.40
2023-05-19T09:29:53.117Z,20.30
2023-05-19T09:32:27.228Z,20.30
2023-05-19T09:34:59.417Z,20.40
2023-05-19T09:37:32.263Z,20.40
2023-05-19T09:40:05.435Z,20.40
2023-05-19T09:42:39.321Z,20.50
2023-05-19T09:45:11.924Z,20.50
2023-05-19T09:47:44.057Z,20.60
2023-05-19T09:50:17.052Z,20.80
2023-05-19T09:52:50.397Z,20.80
2023-05-19T09:55:28.752Z,21.00
2023-05-19T09:58:04.073Z,21.10
2023-05-19T10:00:37.982Z,21.10
2023-05-19T10:03:10.440Z,21.10
2023-05-19T10:05:43.914Z,21.20
2023-05-19T10:08:17.931Z,21.30
2023-05-19T10:10:50.183Z,21.40
2023-05-19T10:13:24.148Z,21.50
2023-05-19T10:15:59.768Z,21.60
2023-05-19T10:18:33.721Z,21.60
2023-05-19T10:21:07.342Z,21.70
2023-05-19T10:23:39.472Z,21.70
2023-05-19T10:26:12.810Z,21.80
2023-05-19T10:28:46.047Z,21.90
2023-05-19T10:31:23.207Z,21.90
2023-05-19T10:34:27.932Z,22.00
2023-05-19T10:37:27.090Z,22.30
2023-05-19T10:39:59.900Z,22.80
2023-05-19T10:42:45.361Z,23.10
2023-05-19T10:45:22.709Z,23.20
2023-05-19T10:47:55.396Z,23.10
2023-05-19T10:50:29.896Z,23.00
2023-05-19T10:53:03.082Z,23.00
2023-05-19T10:56:03.675Z,23.00
2023-05-19T10:58:44.624Z,23.00
2023-05-19T11:01:22.183Z,23.00
2023-05-19T11:03:57.508Z,23.00
2023-05-19T11:06:32.469Z,23.00
2023-05-19T11:09:14.579Z,22.90
2023-05-19T11:11:52.197Z,22.90
2023-05-19T11:14:27.384Z,22.90
2023-05-19T11:17:00.931Z,22.90
2023-05-19T11:19:36.174Z,22.90
2023-05-19T11:22:11.110Z,22.90
2023-05-19T11:24:50.638Z,23.00
2023-05-19T11:27:34.418Z,23.00
2023-05-19T11:30:07.590Z,22.80
2023-05-19T11:32:42.646Z,22.70
2023-05-19T11:35:16.737Z,22.70
2023-05-19T11:37:52.347Z,22.60
2023-05-19T11:40:25.364Z,22.70
2023-05-19T11:42:58.057Z,22.70
2023-05-19T11:45:33.132Z,22.70
2023-05-19T11:48:07.076Z,22.80
2023-05-19T11:50:46.841Z,22.80
2023-05-19T11:53:19.936Z,22.80
2023-05-19T11:55:52.397Z,22.80
2023-05-19T11:58:27.965Z,22.90
2023-05-19T12:01:04.533Z,22.90
2023-05-19T12:03:36.882Z,23.00
2023-05-19T12:06:11.010Z,23.00
2023-05-19T12:08:43.032Z,22.90
2023-05-19T12:11:16.989Z,22.90
2023-05-19T12:13:54.539Z,22.90
2023-05-19T12:16:36.349Z,22.90
2023-05-19T12:19:09.683Z,23.00
2023-05-19T12:21:42.162Z,23.10
2023-05-19T12:24:14.506Z,23.30
2023-05-19T12:26:47.212Z,23.40
2023-05-19T12:29:19.226Z,23.50
2023-05-19T12:31:51.295Z,23.50
2023-05-19T12:34:23.534Z,23.50
2023-05-19T12:36:55.762Z,23.60
2023-05-19T12:39:28.892Z,23.50
2023-05-19T12:42:11.028Z,23.60
2023-05-19T12:44:51.590Z,23.60
2023-05-19T12:47:30.858Z,23.70
2023-05-19T12:50:09.311Z,23.80
2023-05-19T12:52:48.061Z,23.90
2023-05-19T12:55:22.213Z,23.90
2023-05-19T12:57:58.186Z,23.90
2023-05-19T13:00:32.541Z,24.10
2023-05-19T13:03:06.710Z,24.10
2023-05-19T13:05:43.746Z,24.20
2023-05-19T13:08:20.304Z,24.20
2023-05-19T13:10:52.466Z,24.30
2023-05-19T13:13:24.584Z,24.30
2023-05-19T13:15:56.643Z,24.30
2023-05-19T13:18:32.067Z,24.30
2023-05-19T13:21:04.428Z,24.40
2023-05-19T13:23:36.684Z,24.40
2023-05-19T13:26:09.120Z,24.40
2023-05-19T13:28:41.090Z,24.50
2023-05-19T13:31:13.105Z,24.50
2023-05-19T13:33:45.054Z,24.50
2023-05-19T13:36:17.051Z,24.40
2023-05-19T13:38:49.007Z,24.30
2023-05-19T13:41:26.232Z,24.10
2023-05-19T13:44:01.281Z,24.10
2023-05-19T13:46:44.805Z,24.10
2023-05-19T13:49:18.490Z,24.20
2023-05-19T13:51:50.516Z,24.30
2023-05-19T13:54:22.597Z,24.30
2023-05-19T13:56:54.696Z,24.30
2023-05-19T13:59:26.802Z,24.40
2023-05-19T14:01:58.977Z,24.40
2023-05-19T14:04:31.033Z,24.40
2023-05-19T14:07:03.054Z,24.40
2023-05-19T14:09:35.089Z,24.40
2023-05-19T14:12:07.409Z,24.30
2023-05-19T14:14:39.418Z,24.30
2023-05-19T14:17:11.989Z,24.20
2023-05-19T14:19:44.010Z,24.20
2023-05-19T14:22:15.985Z,24.10
2023-05-19T14:24:47.970Z,24.10
2023-05-19T14:27:20.018Z,24.00
2023-05-19T14:29:52.002Z,24.00
2023-05-19T14:32:24.323Z,23.90
2023-05-19T14:34:56.314Z,23.90
2023-05-19T14:37:29.050Z,24.00
2023-05-19T14:40:01.256Z,24.20
2023-05-19T14:42:33.242Z,24.30
2023-05-19T14:45:05.858Z,24.40
2023-05-19T14:47:37.986Z,24.30
2023-05-19T14:50:10.158Z,24.20
2023-05-19T14:52:42.118Z,24.10
2023-05-19T14:55:14.083Z,24.10
2023-05-19T14:57:46.432Z,24.10
2023-05-19T15:00:18.938Z,24.00
2023-05-19T15:02:51.059Z,24.00
2023-05-19T15:05:24.303Z,24.00
2023-05-19T15:07:56.539Z,23.90
2023-05-19T15:10:28.624Z,23.80
2023-05-19T15:13:01.731Z,23.70
2023-05-19T15:15:33.773Z,23.70
2023-05-19T15:18:05.984Z,23.70
2023-05-19T15:20:38.070Z,23.70
2023-05-19T15:23:10.083Z,23.60
2023-05-19T15:25:42.256Z,23.60
2023-05-19T15:28:14.506Z,23.60
2023-05-19T15:30:46.644Z,23.60
2023-05-19T15:33:18.875Z,23.60
2023-05-19T15:35:52.272Z,23.70
2023-05-19T15:38:24.341Z,23.70
2023-05-19T15:40:56.332Z,23.70
2023-05-19T15:43:28.265Z,23.60
2023-05-19T15:46:00.420Z,23.60
2023-05-19T15:48:32.650Z,23.50
2023-05-19T15:51:04.971Z,23.50
2023-05-19T15:53:37.950Z,23.50
2023-05-19T15:56:09.956Z,23.40
2023-05-19T15:58:41.960Z,23.40
2023-05-19T16:01:15.572Z,23.40
2023-05-19T16:03:48.041Z,23.30
2023-05-19T16:06:20.173Z,23.20
2023-05-19T16:08:52.215Z,23.10
2023-05-19T16:11:24.357Z,22.90
2023-05-19T16:13:56.319Z,22.70
2023-05-19T16:16:28.350Z,22.60
2023-05-19T16:19:00.370Z,22.50
2023-05-19T16:21:32.603Z,22.50
2023-05-19T16:24:04.911Z,22.50
2023-05-19T16:26:36.864Z,22.50
2023-05-19T16:29:08.854Z,22.60
2023-05-19T16:31:41.045Z,22.70
2023-05-19T16:34:13.063Z,22.70
2023-05-19T16:36:44.971Z,22.70
2023-05-19T16:39:16.921Z,22.70
2023-05-19T16:41:48.857Z,22.70
2023-05-19T16:44:20.918Z,22.70
2023-05-19T16:46:52.930Z,22.60
2023-05-19T16:49:24.899Z,22.50
2023-05-19T16:51:56.888Z,22.40
2023-05-19T16:54:29.216Z,22.40
2023-05-19T16:57:02.361Z,22.40
2023-05-19T16:59:34.339Z,22.40
2023-05-19T17:02:07.448Z,22.40
2023-05-19T17:04:39.406Z,22.40
2023-05-19T17:07:17.640Z,22.40
2023-05-19T17:09:49.736Z,22.40
2023-05-19T17:12:21.765Z,22.30
2023-05-19T17:14:53.814Z,22.30
2023-05-19T17:17:25.869Z,22.30
2023-05-19T17:19:57.872Z,22.30
2023-05-19T17:22:30.477Z,22.30
2023-05-19T17:25:02.451Z,22.30
2023-05-19T17:27:34.399Z,22.20
2023-05-19T17:30:07.503Z,22.20
2023-05-19T17:32:39.797Z,22.10
2023-05-19T17:35:11.929Z,22.10
2023-05-19T17:37:43.904Z,22.00
2023-05-19T17:40:16.043Z,21.90
2023-05-19T17:42:48.058Z,21.90
2023-05-19T17:45:20.259Z,21.90
2023-05-19T17:47:52.389Z,21.80
2023-05-19T17:50:24.466Z,21.80
2023-05-19T17:52:56.912Z,21.80
2023-05-19T17:55:31.016Z,21.80
2023-05-19T17:58:03.373Z,21.80
2023-05-19T18:00:35.988Z,21.80
2023-05-19T18:03:08.780Z,21.80
2023-05-19T18:05:43.326Z,21.70
2023-05-19T18:08:16.649Z,21.60
2023-05-19T18:10:51.626Z,21.60
2023-05-19T18:13:23.896Z,21.50
2023-05-19T18:15:57.082Z,21.50
2023-05-19T18:18:29.084Z,21.40
2023-05-19T18:21:01.025Z,21.40
2023-05-19T18:23:33.260Z,21.30
2023-05-19T18:26:05.399Z,21.30
2023-05-19T18:28:37.458Z,21.20
2023-05-19T18:31:15.665Z,21.20
2023-05-19T18:33:48.156Z,21.20
2023-05-19T18:36:20.335Z,21.10
2023-05-19T18:38:52.541Z,21.00
2023-05-19T18:41:25.175Z,21.00
2023-05-19T18:43:57.313Z,20.90
2023-05-19T18:46:30.066Z,20.90
2023-05-19T18:49:03.731Z,20.90
2023-05-19T18:51:36.143Z,20.80
2023-05-19T18:54:08.422Z,20.80
2023-05-19T18:56:41.372Z,20.70
2023-05-19T18:59:13.513Z,20.60
2023-05-19T19:01:45.840Z,20.50
2023-05-19T19:04:18.271Z,20.50
2023-05-19T19:06:51.259Z,20.50
2023-05-19T19:09:23.336Z,20.40
2023-05-19T19:11:55.411Z,20.40
2023-05-19T19:14:27.381Z,20.30
2023-05-19T19:16:59.351Z,20.30
2023-05-19T19:19:31.461Z,20.20
2023-05-19T19:22:03.574Z,20.10
2023-05-19T19:24:35.958Z,20.10
2023-05-19T19:27:07.936Z,20.10
2023-05-19T19:29:39.905Z,20.00
2023-05-19T19:32:11.889Z,19.90
2023-05-19T19:34:43.831Z,19.90
2023-05-19T19:37:16.598Z,19.80
2023-05-19T19:39:48.643Z,19.80
2023-05-19T19:42:20.590Z,19.70
2023-05-19T19:44:56.069Z,19.70
2023-05-19T19:47:29.293Z,19.60
2023-05-19T19:50:03.581Z,19.60
2023-05-19T19:52:35.644Z,19.60
2023-05-19T19:55:08.636Z,19.50
2023-05-19T19:57:40.756Z,19.50
2023-05-19T20:00:13.538Z,19.40
2023-05-19T20:03:02.989Z,19.30
2023-05-19T20:05:38.415Z,19.30
2023-05-19T20:08:10.702Z,19.20
2023-05-19T20:10:42.674Z,19.20
2023-05-19T20:13:19.072Z,19.10
2023-05-19T20:15:51.234Z,19.00
2023-05-19T20:18:24.773Z,19.00
2023-05-19T20:20:57.059Z,18.90
2023-05-19T20:23:29.023Z,18.80
2023-05-19T20:26:11.744Z,18.80
2023-05-19T20:28:45.361Z,18.70
2023-05-19T20:31:17.310Z,18.70
2023-05-19T20:33:50.029Z,18.60
2023-05-19T20:36:22.011Z,18.60
2023-05-19T20:38:53.955Z,18.50
2023-05-19T20:41:25.880Z,18.40
2023-05-19T20:43:58.073Z,18.40
2023-05-19T20:46:30.227Z,18.40
2023-05-19T20:49:04.052Z,18.30
2023-05-19T20:51:36.086Z,18.20
2023-05-19T20:54:08.204Z,18.20
2023-05-19T20:56:40.355Z,18.20
2023-05-19T20:59:12.844Z,18.20
2023-05-19T21:01:45.987Z,18.20
2023-05-19T21:04:17.990Z,18.10
2023-05-19T21:06:50.068Z,18.10
2023-05-19T21:09:22.490Z,18.10
2023-05-19T21:11:54.471Z,18.00
2023-05-19T21:14:26.552Z,17.90
2023-05-19T21:16:58.694Z,17.90
2023-05-19T21:19:30.837Z,17.90
2023-05-19T21:22:03.038Z,17.80
2023-05-19T21:24:35.041Z,17.80
2023-05-19T21:27:06.976Z,17.80
2023-05-19T21:29:38.947Z,17.80
2023-05-19T21:32:10.910Z,17.70
2023-05-19T21:34:42.921Z,17.70
2023-05-19T21:37:17.111Z,17.70
2023-05-19T21:39:49.260Z,17.70
2023-05-19T21:42:21.265Z,17.60
2023-05-19T21:44:53.770Z,17.60
2023-05-19T21:47:25.782Z,17.60
2023-05-19T21:49:57.765Z,17.60
2023-05-19T21:52:31.327Z,17.60
2023-05-19T21:55:03.531Z,17.50
2023-05-19T21:57:35.616Z,17.50
2023-05-19T22:00:09.137Z,17.50
2023-05-19T22:02:41.196Z,17.40
2023-05-19T22:05:13.285Z,17.40
2023-05-19T22:07:46.301Z,17.40
2023-05-19T22:10:18.340Z,17.40
2023-05-19T22:12:50.386Z,17.40
2023-05-19T22:15:22.455Z,17.30
2023-05-19T22:17:54.479Z,17.30
2023-05-19T22:20:26.475Z,17.30
2023-05-19T22:22:59.489Z,17.30
2023-05-19T22:25:32.157Z,17.30
2023-05-19T22:28:05.658Z,17.30
2023-05-19T22:30:40.983Z,17.20
2023-05-19T22:33:13.520Z,17.20
2023-05-19T22:35:46.025Z,17.20
2023-05-19T22:38:18.022Z,17.20
2023-05-19T22:40:50.057Z,17.10
2023-05-19T22:43:21.973Z,17.10
2023-05-19T22:45:53.957Z,17.10
2023-05-19T22:48:26.109Z,17.10
2023-05-19T22:50:58.256Z,17.00
2023-05-19T22:53:30.216Z,17.00
2023-05-19T22:56:02.180Z,17.00
2023-05-19T22:58:34.232Z,17.00
2023-05-19T23:01:06.313Z,16.90
2023-05-19T23:03:38.371Z,16.90
2023-05-19T23:06:10.634Z,16.90
2023-05-19T23:08:43.498Z,16.90
2023-05-19T23:11:16.717Z,16.80
2023-05-19T23:13:48.686Z,16.80
2023-05-19T23:16:20.739Z,16.80
2023-05-19T23:18:52.771Z,16.70
2023-05-19T23:21:24.870Z,16.70
2023-05-19T23:23:56.898Z,16.70
2023-05-19T23:26:28.860Z,16.70
2023-05-19T23:29:00.924Z,16.70
2023-05-19T23:31:35.058Z,16.70
2023-05-19T23:34:08.913Z,16.60
2023-05-19T23:36:41.103Z,16.60
2023-05-19T23:39:13.069Z,16.60
2023-05-19T23:41:45.045Z,16.60
2023-05-19T23:44:18.533Z,16.60
2023-05-19T23:46:50.619Z,16.50
2023-05-19T23:49:22.670Z,16.50
2023-05-19T23:51:54.632Z,16.50
2023-05-19T23:54:26.790Z,16.50
2023-05-19T23:56:59.401Z,16.50
2023-05-19T23:59:31.285Z,16.40
